createdAt,value
2022-11-22T00:03:02.946Z,312.50
2022-11-22T00:08:03.155Z,408.50
2022-11-22T00:13:03.363Z,394.70
2022-11-22T00:18:02.570Z,375.10
2022-11-22T00:22:59.728Z,364.10
2022-11-22T00:27:58.914Z,342.20
2022-11-22T00:32:58.070Z,307.00
2022-11-22T00:37:57.246Z,301.10
2022-11-22T00:42:56.404Z,284.20
2022-11-22T00:47:55.600Z,272.10
2022-11-22T00:52:55.789Z,260.30
2022-11-22T00:57:54.094Z,256.50
2022-11-22T01:02:54.428Z,250.70
2022-11-22T01:07:53.773Z,234.60
2022-11-22T01:12:50.918Z,225.20
2022-11-22T01:17:54.203Z,217.50
2022-11-22T01:22:50.478Z,198.90
2022-11-22T01:27:50.777Z,193.80
2022-11-22T01:32:49.095Z,182.50
2022-11-22T01:37:48.385Z,181.50
2022-11-22T01:42:48.676Z,169.30
2022-11-22T01:47:47.976Z,165.60
2022-11-22T01:52:46.253Z,156.70
2022-11-22T01:57:45.545Z,146.80
2022-11-22T02:02:44.857Z,142.90
2022-11-22T02:07:44.240Z,135.00
2022-11-22T02:12:44.383Z,128.60
2022-11-22T02:17:43.686Z,126.70
2022-11-22T02:22:43.998Z,123.30
2022-11-22T02:27:41.324Z,119.50
2022-11-22T02:32:40.619Z,113.60
2022-11-22T02:37:39.959Z,106.60
2022-11-22T02:42:38.088Z,105.10
2022-11-22T02:47:39.278Z,100.40
2022-11-22T02:52:38.593Z,99.70
2022-11-22T02:57:36.864Z,94.30
2022-11-22T03:02:36.150Z,90.40
2022-11-22T03:07:37.525Z,84.00
2022-11-22T03:12:34.699Z,82.50
2022-11-22T03:17:34.045Z,80.40
2022-11-22T03:22:34.181Z,76.10
2022-11-22T03:27:33.482Z,73.20
2022-11-22T03:32:32.791Z,70.10
2022-11-22T03:37:33.120Z,69.60
2022-11-22T03:42:30.445Z,66.40
2022-11-22T03:47:30.752Z,64.10
2022-11-22T03:52:29.030Z,58.60
2022-11-22T03:57:30.313Z,59.00
2022-11-22T04:02:28.600Z,55.30
2022-11-22T04:07:26.908Z,51.80
2022-11-22T04:12:26.189Z,52.70
2022-11-22T04:17:26.500Z,48.70
2022-11-22T04:22:25.796Z,47.70
2022-11-22T04:27:24.105Z,45.30
2022-11-22T04:32:23.277Z,43.70
2022-11-22T04:37:23.589Z,43.10
2022-11-22T04:42:21.863Z,41.00
2022-11-22T04:47:21.286Z,39.00
2022-11-22T04:52:20.437Z,37.10
2022-11-22T04:57:19.577Z,35.90
2022-11-22T05:02:20.056Z,33.90
2022-11-22T05:07:19.219Z,33.20
2022-11-22T05:12:17.309Z,31.90
2022-11-22T05:17:19.627Z,29.20
2022-11-22T05:22:17.931Z,29.80
2022-11-22T05:27:16.226Z,29.00
2022-11-22T05:32:14.571Z,26.80
2022-11-22T05:37:14.868Z,27.00
2022-11-22T05:42:14.163Z,24.70
2022-11-22T05:47:12.500Z,22.40
2022-11-22T05:52:12.776Z,22.30
2022-11-22T05:57:11.042Z,20.90
2022-11-22T06:02:12.445Z,20.80
2022-11-22T06:07:11.586Z,19.60
2022-11-22T06:12:09.876Z,19.80
2022-11-22T06:17:08.168Z,18.70
2022-11-22T06:22:06.490Z,18.40
2022-11-22T06:27:06.817Z,17.10
2022-11-22T06:32:06.139Z,16.70
2022-11-22T06:37:05.480Z,15.60
2022-11-22T06:42:04.782Z,15.70
2022-11-22T06:47:05.422Z,14.40
2022-11-22T06:52:04.309Z,13.10
2022-11-22T06:57:03.617Z,13.10
2022-11-22T07:02:06.330Z,12.70
2022-11-22T07:07:01.203Z,12.60
2022-11-22T07:12:00.521Z,12.00
2022-11-22T07:17:03.960Z,11.60
2022-11-22T07:21:59.027Z,11.90
2022-11-22T07:26:58.358Z,12.00
2022-11-22T07:31:58.654Z,10.60
2022-11-22T07:37:00.472Z,10.20
2022-11-22T07:41:56.112Z,10.10
2022-11-22T07:46:57.384Z,9.40
2022-11-22T07:51:54.687Z,9.30
2022-11-22T07:56:54.990Z,8.50
2022-11-22T08:01:52.348Z,12.70
2022-11-22T08:06:52.509Z,8.00
2022-11-22T08:11:51.819Z,7.80
2022-11-22T08:16:51.122Z,7.90
2022-11-22T08:21:57.087Z,6.60
2022-11-22T08:26:51.611Z,6.90
2022-11-22T08:31:48.928Z,6.50
2022-11-22T08:36:49.323Z,6.50
2022-11-22T08:41:49.427Z,6.30
2022-11-22T08:46:46.731Z,6.10
2022-11-22T08:51:47.052Z,6.50
2022-11-22T08:56:45.346Z,5.40
2022-11-22T09:01:46.734Z,5.00
2022-11-22T09:11:43.119Z,5.10
2022-11-22T09:16:43.244Z,5.10
2022-11-22T09:21:41.565Z,5.70
2022-11-22T09:26:42.720Z,5.50
2022-11-22T09:31:40.042Z,4.40
2022-11-22T09:36:40.195Z,4.50
2022-11-22T09:41:38.321Z,3.50
2022-11-22T09:46:38.720Z,4.60
2022-11-22T09:51:36.819Z,3.90
2022-11-22T09:56:36.172Z,4.00
2022-11-22T10:01:38.331Z,3.70
2022-11-22T10:06:34.444Z,3.20
2022-11-22T10:11:36.590Z,3.40
2022-11-22T10:16:33.117Z,3.10
2022-11-22T10:21:32.435Z,3.50
2022-11-22T10:26:31.577Z,3.00
2022-11-22T10:31:32.709Z,3.40
2022-11-22T10:36:30.998Z,3.40
2022-11-22T10:41:30.315Z,3.10
2022-11-22T10:46:28.609Z,2.40
2022-11-22T10:51:29.886Z,2.40
2022-11-22T10:56:27.175Z,3.20
2022-11-22T11:01:28.553Z,2.30
2022-11-22T11:06:37.906Z,2.50
2022-11-22T11:11:25.887Z,2.50
2022-11-22T11:16:24.032Z,1.80
2022-11-22T11:21:24.168Z,2.50
2022-11-22T11:26:22.483Z,2.00
2022-11-22T11:31:21.643Z,2.00
2022-11-22T11:36:20.802Z,1.70
2022-11-22T11:41:19.936Z,1.80
2022-11-22T11:46:19.120Z,2.40
2022-11-22T11:51:19.304Z,2.40
2022-11-22T11:56:54.417Z,2.00
2022-11-22T12:01:17.720Z,2.40
2022-11-22T12:06:16.881Z,2.00
2022-11-22T12:11:16.200Z,1.90
2022-11-22T12:16:15.488Z,1.60
2022-11-22T12:21:13.802Z,1.90
2022-11-22T12:26:13.089Z,1.20
2022-11-22T12:31:15.336Z,1.60
2022-11-22T12:36:12.608Z,1.70
2022-11-22T12:41:10.939Z,1.90
2022-11-22T12:46:10.257Z,1.30
2022-11-22T12:51:09.560Z,1.70
2022-11-22T12:56:08.832Z,1.70
2022-11-22T13:01:08.215Z,1.40
2022-11-22T13:06:08.349Z,1.60
2022-11-22T13:11:07.654Z,2.00
2022-11-22T13:16:05.929Z,1.90
2022-11-22T13:21:05.231Z,1.80
2022-11-22T13:26:04.539Z,1.70
2022-11-22T13:31:04.835Z,1.80
2022-11-22T13:36:03.151Z,1.90
2022-11-22T13:41:02.262Z,1.80
2022-11-22T13:46:03.570Z,2.10
2022-11-22T13:51:00.814Z,1.50
2022-11-22T13:56:01.115Z,1.30
2022-11-22T14:00:59.513Z,1.20
2022-11-22T14:05:58.568Z,2.00
2022-11-22T14:10:58.838Z,1.50
2022-11-22T14:15:57.133Z,1.60
2022-11-22T14:20:57.419Z,1.80
2022-11-22T14:25:57.714Z,1.70
2022-11-22T14:30:55.003Z,1.50
2022-11-22T14:35:55.319Z,1.00
2022-11-22T14:40:54.609Z,1.10
2022-11-22T14:45:52.935Z,1.60
2022-11-22T14:50:52.052Z,1.20
2022-11-22T14:55:52.373Z,1.50
2022-11-22T15:00:50.730Z,1.50
2022-11-22T15:09:11.393Z,1.80
2022-11-22T15:10:49.065Z,1.30
2022-11-22T16:00:41.046Z,1.50
2022-11-22T16:06:05.965Z,1.30
2022-11-22T16:10:39.375Z,1.60
2022-11-22T16:15:40.705Z,1.30
2022-11-22T16:20:38.015Z,1.10
2022-11-22T16:25:37.155Z,1.30
2022-11-22T16:30:37.809Z,1.30
2022-11-22T16:35:37.127Z,1.00
2022-11-22T16:40:38.715Z,1.30
2022-11-22T16:45:34.342Z,1.00
2022-11-22T16:50:34.452Z,0.90
2022-11-22T16:55:34.560Z,1.60
2022-11-22T17:00:32.187Z,2.80
2022-11-22T17:05:32.245Z,1.30
2022-11-22T17:10:31.420Z,1.20
2022-11-22T17:15:29.692Z,2.30
2022-11-22T17:20:29.010Z,80.40
2022-11-22T17:25:28.203Z,156.30
2022-11-22T17:30:26.512Z,160.80
2022-11-22T17:35:27.767Z,137.30
2022-11-22T17:40:27.984Z,131.00
2022-11-22T17:45:24.934Z,125.00
2022-11-22T17:50:25.540Z,113.90
2022-11-22T17:55:26.360Z,105.70
2022-11-22T18:00:29.688Z,100.60
2022-11-22T18:05:23.072Z,91.20
2022-11-22T18:10:22.666Z,87.20
2022-11-22T18:15:20.917Z,82.80
2022-11-22T18:20:19.861Z,78.70
2022-11-22T18:25:20.392Z,71.00
2022-11-22T18:30:18.624Z,67.70
2022-11-22T18:35:19.914Z,64.20
2022-11-22T18:40:17.206Z,62.60
2022-11-22T18:45:16.568Z,57.60
2022-11-22T18:55:15.649Z,48.80
2022-11-22T19:00:14.306Z,45.80
2022-11-22T19:05:13.506Z,43.10
2022-11-22T19:10:13.623Z,40.70
2022-11-22T19:15:13.662Z,39.50
2022-11-22T19:20:32.137Z,37.40
2022-11-22T19:25:12.664Z,35.70
2022-11-22T19:30:09.921Z,33.00
2022-11-22T19:35:10.031Z,32.00
2022-11-22T19:40:09.234Z,32.40
2022-11-22T19:45:08.700Z,29.20
2022-11-22T19:50:06.874Z,26.60
2022-11-22T19:55:08.328Z,25.40
2022-11-22T20:00:06.154Z,24.50
2022-11-22T20:05:06.537Z,23.60
2022-11-22T20:10:03.743Z,21.90
2022-11-22T20:15:03.869Z,21.00
2022-11-22T20:20:04.297Z,93.50
2022-11-22T20:25:01.523Z,216.00
2022-11-22T20:30:01.733Z,160.60
2022-11-22T20:34:59.644Z,147.10
2022-11-22T20:39:59.747Z,135.90
2022-11-22T20:44:58.389Z,250.80
2022-11-22T20:49:57.608Z,250.90
2022-11-22T20:55:04.599Z,232.10
2022-11-22T20:59:57.163Z,304.20
2022-11-22T21:04:55.097Z,312.50
2022-11-22T21:09:55.913Z,278.40
2022-11-22T21:14:54.733Z,399.40
2022-11-22T21:19:52.717Z,389.50
2022-11-22T21:24:52.937Z,324.00
2022-11-22T21:29:52.141Z,279.10
2022-11-22T21:34:50.352Z,247.20
2022-11-22T21:39:51.556Z,225.60
2022-11-22T21:44:49.743Z,195.60
2022-11-22T21:49:47.948Z,183.70
2022-11-22T21:54:47.210Z,204.40
2022-11-22T21:59:46.420Z,294.60
2022-11-22T22:04:46.600Z,273.60
2022-11-22T22:09:44.746Z,243.80
2022-11-22T22:14:44.910Z,261.90
2022-11-22T22:19:43.076Z,338.60
2022-11-22T22:24:42.272Z,309.20
2022-11-22T22:29:41.446Z,274.30
2022-11-22T22:34:39.680Z,249.60
2022-11-22T22:39:41.872Z,219.60
2022-11-22T22:44:41.027Z,193.20
2022-11-22T22:49:38.188Z,175.40
2022-11-22T22:54:36.389Z,163.90
2022-11-22T22:59:37.612Z,152.60
2022-11-22T23:04:36.809Z,134.70
2022-11-22T23:09:35.985Z,128.00
2022-11-22T23:14:35.178Z,118.30
2022-11-22T23:19:33.575Z,112.30
2022-11-22T23:24:34.575Z,169.90
2022-11-22T23:29:31.945Z,303.30
2022-11-22T23:34:30.966Z,267.50
2022-11-22T23:39:30.508Z,254.40
2022-11-22T23:44:30.474Z,368.60
2022-11-22T23:49:29.928Z,310.00
2022-11-22T23:54:27.858Z,286.20
2022-11-22T23:59:27.080Z,145.40
